Time;durP1;ratioP1;P1;durP2;ratioP2;P2;SDS_P1;SDS_P2;PMS_P1;PMS_P2;Temp;Humidity;BMP_temperature;BMP_pressure;BME280_temperature;BME280_humidity;BME280_pressure;Samples;Min_cycle;Max_cycle;Signal;HPM_P1;HPM_P2
2023/06/25 00:00:53;;;;;;;1999.90;999.90;;;;;;;16.25;100.00;95790.88;5063703;28;20197;-59
2023/06/25 00:03:19;;;;;;;1999.90;999.90;;;;;;;16.22;100.00;95792.50;5063740;28;20169;-58
2023/06/25 00:05:44;;;;;;;1999.90;999.90;;;;;;;16.21;100.00;95790.19;5064718;28;20252;-60
2023/06/25 00:08:10;;;;;;;1999.90;999.90;;;;;;;16.14;100.00;95787.59;5064369;28;20189;-58
2023/06/25 00:10:35;;;;;;;1999.90;999.90;;;;;;;16.12;100.00;95793.53;5064219;28;20307;-58
2023/06/25 00:13:00;;;;;;;1999.90;999.90;;;;;;;16.09;100.00;95786.13;5063773;28;20194;-58
2023/06/25 00:15:27;;;;;;;1999.90;999.90;;;;;;;16.03;100.00;95787.06;5063829;28;20189;-58
2023/06/25 00:17:53;;;;;;;1999.90;999.90;;;;;;;15.95;100.00;95777.38;5063614;28;20201;-59
2023/06/25 00:20:18;;;;;;;1999.90;999.90;;;;;;;15.88;100.00;95778.34;5063693;28;20212;-58
2023/06/25 00:22:44;;;;;;;1999.90;999.90;;;;;;;15.80;100.00;95779.69;5063817;28;20190;-58
2023/06/25 00:25:10;;;;;;;1999.90;999.90;;;;;;;15.77;100.00;95777.78;5063659;28;20208;-58
2023/06/25 00:27:35;;;;;;;1999.90;999.90;;;;;;;15.74;100.00;95773.13;5063684;28;20216;-58
2023/06/25 00:30:02;;;;;;;1999.90;999.90;;;;;;;15.77;100.00;95772.28;5064198;28;20186;-58
2023/06/25 00:32:27;;;;;;;1999.90;999.90;;;;;;;15.74;100.00;95767.63;5064041;28;20197;-58
2023/06/25 00:34:57;;;;;;;1999.90;999.90;;;;;;;15.72;100.00;95772.81;5063363;28;20202;-59
2023/06/25 00:37:23;;;;;;;1999.90;999.90;;;;;;;15.69;100.00;95768.16;5067617;28;20227;-58
2023/06/25 00:39:49;;;;;;;1999.90;999.90;;;;;;;15.72;100.00;95770.06;5067777;28;20202;-58
2023/06/25 00:42:15;;;;;;;1999.90;999.90;;;;;;;15.72;100.00;95770.06;5068164;28;20192;-58
2023/06/25 00:44:40;;;;;;;1999.90;999.90;;;;;;;15.69;100.00;95765.38;5067688;28;20193;-58
2023/06/25 00:47:16;;;;;;;1999.90;999.90;;;;;;;15.68;100.00;95763.06;5067909;28;20254;-58
2023/06/25 00:49:43;;;;;;;1999.90;999.90;;;;;;;15.66;100.00;95759.97;5067867;28;20216;-57
2023/06/25 00:52:11;;;;;;;1999.90;999.90;;;;;;;15.61;100.00;95755.75;5067375;28;20194;-57
2023/06/25 00:54:41;;;;;;;1999.90;999.90;;;;;;;15.55;100.00;95751.94;5067493;28;20224;-58
2023/06/25 00:57:08;;;;;;;1999.90;999.90;;;;;;;15.48;100.00;95743.81;5067343;28;20224;-58
2023/06/25 00:59:41;;;;;;;1999.90;999.90;;;;;;;15.48;100.00;95752.06;5067371;28;20207;-58
2023/06/25 01:02:46;;;;;;;1999.90;999.90;;;;;;;15.47;100.00;95747.78;5067741;28;20212;-57
2023/06/25 01:05:28;;;;;;;1999.90;999.90;;;;;;;15.45;100.00;95744.66;5063236;28;20212;-57
2023/06/25 01:07:58;;;;;;;1999.90;999.90;;;;;;;15.42;100.00;95733.75;5067473;28;20193;-59
2023/06/25 01:10:24;;;;;;;1999.90;999.90;;;;;;;15.43;100.00;95741.56;5067430;28;20228;-58
2023/06/25 01:12:49;;;;;;;1999.90;999.90;;;;;;;15.42;100.00;95739.25;5067364;28;20193;-58
2023/06/25 01:15:15;;;;;;;1999.90;999.90;;;;;;;15.38;100.00;95733.84;5067337;28;20240;-58
2023/06/25 01:17:41;;;;;;;1999.90;999.90;;;;;;;15.37;100.00;95729.50;5067000;28;20240;-59
2023/06/25 01:20:12;;;;;;;1999.90;999.90;;;;;;;15.31;100.00;95733.94;5066973;28;20232;-58
2023/06/25 01:22:41;;;;;;;1999.90;999.90;;;;;;;15.24;100.00;95725.84;5066830;28;20197;-58
2023/06/25 01:25:07;;;;;;;1999.90;999.90;;;;;;;15.26;100.00;95726.16;5067678;28;20197;-58
2023/06/25 01:27:36;;;;;;;1999.90;999.90;;;;;;;15.26;100.00;95726.16;5066999;28;20213;-57
2023/06/25 01:30:03;;;;;;;1999.90;999.90;;;;;;;15.22;100.00;95721.94;5066954;28;20239;-58
2023/06/25 01:32:28;;;;;;;1999.90;999.90;;;;;;;15.15;100.00;95713.84;5066839;28;20196;-58
2023/06/25 01:34:54;;;;;;;1999.90;999.90;;;;;;;15.17;100.00;95717.72;5066900;28;20186;-58
2023/06/25 01:37:19;;;;;;;1999.90;999.90;;;;;;;15.15;100.00;95713.84;5067073;28;20350;-58
2023/06/25 01:39:50;;;;;;;1999.90;999.90;;;;;;;15.13;100.00;95710.75;5067052;28;20193;-58
2023/06/25 01:42:16;;;;;;;1999.90;999.90;;;;;;;15.10;100.00;95712.38;5067093;28;20185;-58
2023/06/25 01:44:41;;;;;;;1999.90;999.90;;;;;;;15.07;100.00;95707.72;5067048;28;20209;-58
2023/06/25 01:47:07;;;;;;;1999.90;999.90;;;;;;;15.05;100.00;95699.09;5066302;28;20193;-58
2023/06/25 01:49:32;;;;;;;1999.90;999.90;;;;;;;15.04;100.00;95705.78;5066775;28;20197;-57
2023/06/25 01:51:57;;;;;;;1999.90;999.90;;;;;;;15.04;100.00;95711.31;5066748;28;20193;-58
2023/06/25 01:54:23;;;;;;;1999.90;999.90;;;;;;;14.95;100.00;95711.09;5066947;28;20194;-58
2023/06/25 01:56:48;;;;;;;1999.90;999.90;;;;;;;14.97;100.00;95694.94;5066376;28;20200;-57
2023/06/25 01:59:13;;;;;;;1999.90;999.90;;;;;;;14.96;100.00;95698.09;5066305;28;20205;-58
2023/06/25 02:01:39;;;;;;;1999.90;999.90;;;;;;;14.94;100.00;95698.53;5066252;28;20243;-58
2023/06/25 02:04:04;;;;;;;1999.90;999.90;;;;;;;14.92;100.00;95700.16;5066331;28;20194;-58
2023/06/25 02:06:30;;;;;;;1999.90;999.90;;;;;;;14.92;100.00;95702.91;5066339;28;20194;-58
2023/06/25 02:08:55;;;;;;;1999.90;999.90;;;;;;;14.91;100.00;95693.91;5066358;28;20227;-58
2023/06/25 02:11:21;;;;;;;1999.90;999.90;;;;;;;14.91;100.00;95695.88;5066305;28;20193;-58
2023/06/25 02:13:46;;;;;;;1999.90;999.90;;;;;;;14.90;100.00;95692.31;5066078;28;20189;-58
2023/06/25 02:16:11;;;;;;;1999.90;999.90;;;;;;;14.83;100.00;95689.72;5066637;28;20194;-57
2023/06/25 02:18:37;;;;;;;1999.90;999.90;;;;;;;14.79;100.00;95686.25;5066248;28;20336;-58
2023/06/25 02:21:03;;;;;;;1999.90;999.90;;;;;;;14.72;100.00;95691.91;5066415;28;20197;-58
2023/06/25 02:23:28;;;;;;;1999.90;999.90;;;;;;;14.61;100.00;95691.31;5065880;28;20265;-58
2023/06/25 02:25:53;;;;;;;1999.90;999.90;;;;;;;14.60;100.00;95689.78;5066032;28;20202;-58
2023/06/25 02:28:19;;;;;;;1999.90;999.90;;;;;;;14.55;100.00;95687.53;5065555;28;20203;-58
2023/06/25 02:30:45;;;;;;;1999.90;999.90;;;;;;;14.54;100.00;95679.72;5065854;28;20196;-58
2023/06/25 02:33:11;;;;;;;1999.90;999.90;;;;;;;14.52;100.00;95677.38;5065923;28;20194;-58
2023/06/25 02:35:36;;;;;;;1999.90;999.90;;;;;;;14.44;100.00;95670.47;5065843;28;20228;-58
2023/06/25 02:38:02;;;;;;;1999.90;999.90;;;;;;;14.37;100.00;95680.78;5065660;28;20202;-58
2023/06/25 02:40:27;;;;;;;1999.90;999.90;;;;;;;14.35;100.00;95683.97;5065536;28;20231;-58
2023/06/25 02:42:54;;;;;;;1999.90;999.90;;;;;;;14.33;100.00;95669.88;5065576;28;20202;-59
2023/06/25 02:45:19;;;;;;;1999.90;999.90;;;;;;;14.33;100.00;95672.63;5065893;28;20195;-58
2023/06/25 02:47:44;;;;;;;1999.90;999.90;;;;;;;14.31;100.00;95674.25;5065928;28;20221;-57
2023/06/25 02:50:10;;;;;;;1999.90;999.90;;;;;;;14.22;100.00;95674.78;5065485;28;20189;-57
2023/06/25 02:52:35;;;;;;;1999.90;999.90;;;;;;;14.15;100.00;95674.88;5065377;28;20201;-58
2023/06/25 02:55:00;;;;;;;1999.90;999.90;;;;;;;14.11;100.00;95668.69;5065180;28;20275;-58
2023/06/25 02:57:29;;;;;;;1999.90;999.90;;;;;;;14.07;100.00;95669.94;5065153;28;20193;-58
2023/06/25 02:59:55;;;;;;;1999.90;999.90;;;;;;;14.09;100.00;95659.31;5065061;28;20204;-58
2023/06/25 03:02:20;;;;;;;1999.90;999.90;;;;;;;14.06;100.00;95671.13;5065064;28;20213;-58
2023/06/25 03:04:46;;;;;;;1999.90;999.90;;;;;;;14.11;100.00;95657.69;5064917;28;20198;-57
2023/06/25 03:07:11;;;;;;;1999.90;999.90;;;;;;;14.14;100.00;95665.09;5065154;28;20193;-58
2023/06/25 03:09:36;;;;;;;1999.90;999.90;;;;;;;14.10;100.00;95661.66;5065007;28;20197;-58
2023/06/25 03:12:02;;;;;;;1999.90;999.90;;;;;;;14.08;100.00;95664.03;5065405;28;20193;-58
2023/06/25 03:14:27;;;;;;;1999.90;999.90;;;;;;;14.14;100.00;95662.34;5064876;28;20197;-58
2023/06/25 03:16:52;;;;;;;1999.90;999.90;;;;;;;14.16;100.00;95656.44;5064815;28;20174;-58
2023/06/25 03:19:18;;;;;;;1999.90;999.90;;;;;;;14.18;100.00;95659.53;5064855;28;20221;-58
2023/06/25 03:21:43;;;;;;;1999.90;999.90;;;;;;;14.22;100.00;95658.31;5065293;28;20202;-58
2023/06/25 03:24:08;;;;;;;1999.90;999.90;;;;;;;14.26;100.00;95670.00;5064743;28;20208;-57
2023/06/25 03:26:34;;;;;;;1999.90;999.90;;;;;;;14.32;100.00;95662.84;5064678;28;20210;-58
2023/06/25 03:28:59;;;;;;;1999.90;999.90;;;;;;;14.38;100.00;95663.91;5064405;28;20205;-58
2023/06/25 03:31:24;;;;;;;1999.90;999.90;;;;;;;14.45;100.00;95663.75;5065001;28;20240;-58
2023/06/25 03:33:50;;;;;;;1999.90;999.90;;;;;;;14.59;100.00;95655.25;5064593;28;20502;-58
2023/06/25 03:36:16;;;;;;;1999.90;999.90;;;;;;;14.77;100.00;95661.19;5064608;28;20198;-60
2023/06/25 03:38:42;;;;;;;1999.90;999.90;;;;;;;14.95;100.00;95667.09;5064414;28;20217;-58
2023/06/25 03:41:07;;;;;;;1999.90;999.90;;;;;;;15.24;100.00;95673.56;5064656;28;20224;-57
2023/06/25 03:43:32;;;;;;;1999.90;999.90;;;;;;;15.54;100.00;95675.25;5064616;28;20201;-58
2023/06/25 03:45:58;;;;;;;1999.90;999.90;;;;;;;15.80;100.00;95677.00;5064751;28;20237;-59
2023/06/25 03:48:23;;;;;;;1999.90;999.90;;;;;;;16.06;100.00;95674.00;5064673;28;20249;-58
2023/06/25 03:50:48;;;;;;;1999.90;999.90;;;;;;;16.31;100.00;95679.66;5064709;28;20197;-58
2023/06/25 03:53:16;;;;;;;1999.90;999.90;;;;;;;16.64;100.00;95685.16;5064043;28;20201;-58
2023/06/25 03:55:42;;;;;;;1999.90;999.90;;;;;;;16.86;100.00;95688.88;5064668;28;20197;-58
2023/06/25 03:58:07;;;;;;;1999.90;999.90;;;;;;;17.03;100.00;95679.31;5064257;28;20293;-58
2023/06/25 04:00:33;;;;;;;1999.90;999.90;;;;;;;17.13;100.00;95672.72;5064736;28;20193;-58
2023/06/25 04:02:58;;;;;;;1999.90;999.90;;;;;;;17.29;100.00;95678.94;5064659;28;20200;-59
2023/06/25 04:05:23;;;;;;;1999.90;999.90;;;;;;;17.58;100.00;95676.13;5063847;28;20197;-57
2023/06/25 04:07:49;;;;;;;1999.90;999.90;;;;;;;17.72;100.00;95675.69;5064235;28;20201;-58
2023/06/25 04:10:14;;;;;;;1999.90;999.90;;;;;;;17.88;100.00;95670.06;5063669;28;20240;-58
2023/06/25 04:12:39;;;;;;;1999.90;999.90;;;;;;;18.09;100.00;95674.88;5063780;28;20240;-58
2023/06/25 04:15:05;;;;;;;1999.90;999.90;;;;;;;18.26;100.00;95674.31;5064116;28;20208;-58
2023/06/25 04:17:31;;;;;;;1999.90;999.90;;;;;;;18.56;100.00;95672.94;5064060;28;20208;-58
2023/06/25 04:19:56;;;;;;;1999.90;999.90;;;;;;;18.80;100.00;95671.31;5063846;28;20178;-59
2023/06/25 04:22:21;;;;;;;1999.90;999.90;;;;;;;19.01;100.00;95670.50;5063988;28;20268;-58
2023/06/25 04:24:47;;;;;;;1999.90;999.90;;;;;;;19.22;100.00;95669.75;5063947;28;20205;-58
2023/06/25 04:27:12;;;;;;;1999.90;999.90;;;;;;;19.29;100.00;95667.53;5063805;28;20214;-58
2023/06/25 04:29:38;;;;;;;1999.90;999.90;;;;;;;19.57;100.00;95671.22;5047075;28;20260;-58
2023/06/25 04:32:04;;;;;;;1999.90;999.90;;;;;;;19.84;100.00;95671.31;5064123;28;20209;-58
2023/06/25 04:34:30;;;;;;;1999.90;999.90;;;;;;;19.99;100.00;95674.31;5063830;28;20198;-58
2023/06/25 04:36:55;;;;;;;1999.90;999.90;;;;;;;20.20;100.00;95673.47;5063710;28;20194;-58
2023/06/25 04:39:20;;;;;;;1999.90;999.90;;;;;;;20.23;100.00;95667.78;5063739;28;20206;-58
2023/06/25 04:41:46;;;;;;;1999.90;999.90;;;;;;;20.46;100.00;95669.97;5064057;28;20201;-58
2023/06/25 04:44:11;;;;;;;1999.90;999.90;;;;;;;20.54;100.00;95668.44;5063448;28;20243;-58
2023/06/25 04:46:36;;;;;;;1999.90;999.90;;;;;;;20.69;100.00;95663.81;5063777;28;20208;-60
2023/06/25 04:49:04;;;;;;;1999.90;999.90;;;;;;;20.71;100.00;95672.47;5063336;28;20205;-58
2023/06/25 04:51:29;;;;;;;1999.90;999.90;;;;;;;21.06;100.00;95665.41;5064033;28;20174;-58
2023/06/25 04:53:55;;;;;;;1999.90;999.90;;;;;;;21.42;100.00;95673.69;5063733;28;20205;-58
2023/06/25 04:56:20;;;;;;;1999.90;999.90;;;;;;;21.56;100.00;95653.56;5063885;28;20265;-59
2023/06/25 04:58:45;;;;;;;1999.90;999.90;;;;;;;21.76;100.00;95661.41;5063391;28;20220;-58
2023/06/25 05:01:11;;;;;;;1999.90;999.90;;;;;;;21.77;100.00;95657.38;5063610;28;20201;-58
2023/06/25 05:03:36;;;;;;;1999.90;999.90;;;;;;;21.87;100.00;95668.03;5063798;28;20248;-58
2023/06/25 05:06:01;;;;;;;1999.90;999.90;;;;;;;21.98;100.00;95662.72;5063556;28;20205;-59
2023/06/25 05:08:27;;;;;;;1999.90;999.90;;;;;;;22.13;100.00;95669.13;5063337;28;20204;-59
2023/06/25 05:10:52;;;;;;;1999.90;999.90;;;;;;;22.09;100.00;95676.88;5063341;28;20197;-58
2023/06/25 05:13:18;;;;;;;1999.90;999.90;;;;;;;22.48;100.00;95670.19;5063272;28;20200;-59
2023/06/25 05:15:43;;;;;;;1999.90;999.90;;;;;;;22.89;100.00;95673.31;5063275;28;20200;-59
2023/06/25 05:18:09;;;;;;;1999.90;999.90;;;;;;;22.79;100.00;95674.63;5063350;28;20213;-58
2023/06/25 05:20:38;;;;;;;1999.90;999.90;;;;;;;22.81;100.00;95677.72;5063653;28;20205;-59
2023/06/25 05:23:04;;;;;;;1999.90;999.90;;;;;;;22.94;100.00;95673.41;5064892;28;20244;-59
2023/06/25 05:25:31;;;;;;;1999.90;999.90;;;;;;;22.56;100.00;95667.06;5067409;28;20193;-59
2023/06/25 05:27:56;;;;;;;1999.90;999.90;;;;;;;22.82;100.00;95676.44;5067402;28;20194;-58
2023/06/25 05:30:21;;;;;;;1999.90;999.90;;;;;;;23.30;100.00;95675.16;5067168;28;20193;-59
2023/06/25 05:32:47;;;;;;;1999.90;999.90;;;;;;;23.45;100.00;95675.94;5066954;28;20256;-57
2023/06/25 05:35:12;;;;;;;1999.90;999.90;;;;;;;23.58;100.00;95674.41;5066738;28;20197;-58
2023/06/25 05:37:37;;;;;;;1999.90;999.90;;;;;;;23.95;98.82;95669.19;5066805;28;20198;-57
2023/06/25 05:40:03;;;;;;;1999.90;999.90;;;;;;;23.78;99.44;95677.28;5066867;28;20193;-58
2023/06/25 05:42:29;;;;;;;1999.90;999.90;;;;;;;23.96;97.78;95677.09;5066829;28;20259;-59
2023/06/25 05:44:54;;;;;;;1999.90;999.90;;;;;;;24.28;95.07;95669.69;5066822;28;20197;-59
2023/06/25 05:47:20;;;;;;;1999.90;999.90;;;;;;;24.59;92.32;95676.25;5067117;28;20256;-60
2023/06/25 05:49:45;;;;;;;1999.90;999.90;;;;;;;24.55;93.35;95675.69;5066457;28;20213;-60
2023/06/25 05:52:10;;;;;;;1999.90;999.90;;;;;;;24.19;93.97;95672.63;5066554;28;20189;-59
2023/06/25 05:54:35;;;;;;;1999.90;999.90;;;;;;;24.05;96.30;95673.44;5066600;28;20949;-60
2023/06/25 05:57:01;;;;;;;1999.90;999.90;;;;;;;24.19;96.82;95673.38;5066750;28;20225;-60
2023/06/25 05:59:26;;;;;;;1999.90;999.90;;;;;;;24.77;92.31;95678.03;5066452;28;20240;-62
2023/06/25 06:01:52;;;;;;;1999.90;999.90;;;;;;;25.06;92.98;95675.84;5066611;28;20222;-60
2023/06/25 06:04:17;;;;;;;1999.90;999.90;;;;;;;25.33;86.68;95671.84;5066527;28;20201;-61
2023/06/25 06:06:42;;;;;;;1999.90;999.90;;;;;;;25.55;83.51;95686.06;5066576;28;20194;-59
2023/06/25 06:09:08;;;;;;;1999.90;999.90;;;;;;;25.48;85.31;95678.13;5066133;28;20197;-60
2023/06/25 06:11:33;;;;;;;1999.90;999.90;;;;;;;25.53;82.40;95677.38;5066715;28;20217;-60
2023/06/25 06:13:58;;;;;;;1999.90;999.90;;;;;;;25.51;82.63;95679.94;5066333;28;20261;-60
2023/06/25 06:16:24;;;;;;;1999.90;999.90;;;;;;;25.23;85.35;95681.63;5066337;28;20223;-60
2023/06/25 06:18:49;;;;;;;1999.90;999.90;;;;;;;25.39;84.15;95672.69;5066199;28;20214;-60
2023/06/25 06:21:14;;;;;;;1999.90;999.90;;;;;;;25.90;79.55;95672.66;5065902;28;20340;-60
2023/06/25 06:23:40;;;;;;;1999.90;999.90;;;;;;;26.22;78.27;95670.66;5065878;28;20185;-61
2023/06/25 06:26:05;;;;;;;1999.90;999.90;;;;;;;26.45;76.70;95667.50;5066611;28;20210;-60
2023/06/25 06:28:30;;;;;;;1999.90;999.90;;;;;;;26.65;77.40;95661.75;5066355;28;20261;-60
2023/06/25 06:30:56;;;;;;;1999.90;999.90;;;;;;;27.20;72.51;95659.19;5065783;28;20204;-60
2023/06/25 06:33:21;;;;;;;1999.90;999.90;;;;;;;26.59;76.62;95660.94;5065128;28;20197;-59
2023/06/25 06:35:46;;;;;;;1999.90;999.90;;;;;;;27.35;72.04;95653.41;5065857;28;20295;-60
2023/06/25 06:38:12;;;;;;;1999.90;999.90;;;;;;;27.62;69.57;95667.50;5065565;28;20197;-60
2023/06/25 06:40:37;;;;;;;1999.90;999.90;;;;;;;27.31;70.92;95656.44;5065788;28;20213;-60
2023/06/25 06:43:02;;;;;;;1999.90;999.90;;;;;;;27.75;69.11;95659.31;5065770;28;20261;-61
2023/06/25 06:45:28;;;;;;;1999.90;999.90;;;;;;;27.46;69.30;95659.78;5065699;28;20234;-63
2023/06/25 06:47:53;;;;;;;1999.90;999.90;;;;;;;27.36;69.55;95658.50;5065248;28;20193;-63
2023/06/25 06:50:18;;;;;;;1999.90;999.90;;;;;;;28.15;64.97;95663.69;5065732;28;20272;-63
2023/06/25 06:52:45;;;;;;;1999.90;999.90;;;;;;;28.03;65.27;95657.31;5065749;28;20217;-64
2023/06/25 06:55:13;;;;;;;1999.90;999.90;;;;;;;28.91;63.79;95652.84;5065820;28;20178;-64
2023/06/25 06:57:38;;;;;;;1999.90;999.90;;;;;;;28.78;61.61;95653.38;5065357;28;20193;-63
2023/06/25 07:00:04;;;;;;;1999.90;999.90;;;;;;;28.47;66.32;95644.53;5065298;28;20219;-63
2023/06/25 07:02:30;;;;;;;1999.90;999.90;;;;;;;29.85;60.74;95644.66;5062197;28;20193;-63
2023/06/25 07:04:55;;;;;;;1999.90;999.90;;;;;;;29.12;59.26;95654.03;5065170;28;20202;-61
2023/06/25 07:07:21;;;;;;;1999.90;999.90;;;;;;;28.77;60.32;95651.09;5065017;28;20201;-62
2023/06/25 07:09:55;;;;;;;1999.90;999.90;;;;;;;27.88;63.50;95645.59;5065203;28;20193;-61
2023/06/25 07:12:21;;;;;;;1999.90;999.90;;;;;;;27.89;64.66;95647.09;5064796;28;20201;-61
2023/06/25 07:14:47;;;;;;;1999.90;999.90;;;;;;;28.42;63.44;95636.81;5065223;28;20213;-70
2023/06/25 07:17:12;;;;;;;1999.90;999.90;;;;;;;29.45;61.28;95632.09;5065421;28;20200;-68
2023/06/25 07:19:38;;;;;;;1999.90;999.90;;;;;;;29.77;59.19;95630.38;5064914;28;20217;-68
2023/06/25 07:22:03;;;;;;;1999.90;999.90;;;;;;;29.89;55.50;95637.47;5064700;28;20205;-63
2023/06/25 07:24:29;;;;;;;1999.90;999.90;;;;;;;29.63;56.16;95636.38;5065269;28;20170;-62
2023/06/25 07:26:54;;;;;;;1999.90;999.90;;;;;;;29.53;57.08;95635.16;5064925;28;20208;-61
2023/06/25 07:29:19;;;;;;;1999.90;999.90;;;;;;;31.33;52.28;95622.63;5064695;28;20193;-62
2023/06/25 07:31:45;;;;;;;1999.90;999.90;;;;;;;30.69;52.02;95629.28;5064526;28;20217;-61
2023/06/25 07:34:10;;;;;;;1999.90;999.90;;;;;;;31.84;48.05;95635.53;5064488;28;20193;-62
2023/06/25 07:36:35;;;;;;;1999.90;999.90;;;;;;;31.27;49.43;95636.06;5064800;28;20190;-62
2023/06/25 07:39:03;;;;;;;1999.90;999.90;;;;;;;29.64;53.88;95635.09;5064301;28;20201;-62
2023/06/25 07:41:29;;;;;;;1999.90;999.90;;;;;;;30.61;52.48;95636.81;5064249;28;20204;-62
2023/06/25 07:43:55;;;;;;;1999.90;999.90;;;;;;;30.69;51.99;95623.63;5064464;28;20186;-63
2023/06/25 07:46:21;;;;;;;1999.90;999.90;;;;;;;29.79;52.19;95632.69;5064001;28;20200;-62
2023/06/25 07:48:46;;;;;;;1999.90;999.90;;;;;;;29.58;56.09;95634.34;5064263;28;20193;-63
2023/06/25 07:51:12;;;;;;;1999.90;999.90;;;;;;;30.17;51.94;95634.44;5064046;28;20192;-63
2023/06/25 07:53:37;;;;;;;1999.90;999.90;;;;;;;31.56;49.72;95629.50;5064139;28;20200;-67
2023/06/25 07:56:03;;;;;;;1999.90;999.90;;;;;;;31.21;49.00;95629.72;5064901;28;20192;-67
2023/06/25 07:58:28;;;;;;;1999.90;999.90;;;;;;;31.08;48.79;95627.56;5064056;28;20202;-67
2023/06/25 08:00:54;;;;;;;1999.90;999.90;;;;;;;29.33;55.70;95629.88;5064400;28;20201;-62
2023/06/25 08:03:19;;;;;;;1999.90;999.90;;;;;;;29.95;53.45;95628.97;5064511;28;20213;-65
2023/06/25 08:05:44;;;;;;;1999.90;999.90;;;;;;;29.33;55.92;95616.59;5063979;28;20190;-67
2023/06/25 08:08:10;;;;;;;1999.90;999.90;;;;;;;28.84;56.19;95628.81;5064058;28;20270;-67
2023/06/25 08:10:35;;;;;;;1999.90;999.90;;;;;;;29.09;57.17;95619.25;5064027;28;20219;-66
2023/06/25 08:13:00;;;;;;;1999.90;999.90;;;;;;;29.57;52.33;95627.19;5064100;28;20196;-66
2023/06/25 08:15:26;;;;;;;1999.90;999.90;;;;;;;30.07;50.52;95619.09;5063722;28;20201;-66
2023/06/25 08:17:51;;;;;;;1999.90;999.90;;;;;;;29.99;51.63;95621.75;5063730;28;20198;-67
2023/06/25 08:20:16;;;;;;;1999.90;999.90;;;;;;;29.77;53.00;95610.66;5063682;28;20197;-67
2023/06/25 08:22:42;;;;;;;1999.90;999.90;;;;;;;30.76;50.88;95595.63;5064075;28;20193;-66
2023/06/25 08:25:19;;;;;;;1999.90;999.90;;;;;;;31.31;48.62;95605.47;5063686;28;20215;-68
2023/06/25 08:27:44;;;;;;;1999.90;999.90;;;;;;;31.83;46.01;95607.81;5063692;28;20255;-67
2023/06/25 08:30:10;;;;;;;1999.90;999.90;;;;;;;32.24;45.30;95606.06;5063606;28;20190;-65
2023/06/25 08:32:36;;;;;;;1999.90;999.90;;;;;;;32.06;43.45;95594.81;5063881;28;20189;-66
2023/06/25 08:35:02;;;;;;;1999.90;999.90;;;;;;;31.05;44.58;95608.09;5063947;28;20189;-65
2023/06/25 08:37:27;;;;;;;1999.90;999.90;;;;;;;30.97;45.12;95604.34;5063654;28;20195;-65
2023/06/25 08:39:53;;;;;;;1999.90;999.90;;;;;;;31.75;44.59;95601.97;5063674;28;20205;-66
2023/06/25 08:42:18;;;;;;;1999.90;999.90;;;;;;;32.24;42.43;95600.41;5063734;28;20190;-66
2023/06/25 08:44:43;;;;;;;1999.90;999.90;;;;;;;31.07;44.60;95614.72;5064090;28;20188;-66
2023/06/25 08:47:11;;;;;;;1999.90;999.90;;;;;;;31.29;44.76;95602.41;5063676;28;20220;-66
2023/06/25 08:49:41;;;;;;;1999.90;999.90;;;;;;;31.10;44.34;95613.66;5064049;28;20252;-65
2023/06/25 08:52:09;;;;;;;1999.90;999.90;;;;;;;30.15;43.72;95625.72;5063156;28;20225;-66
2023/06/25 08:54:34;;;;;;;1999.90;999.90;;;;;;;30.96;43.52;95608.47;5063196;28;20253;-65
2023/06/25 08:57:00;;;;;;;1999.90;999.90;;;;;;;30.32;42.12;95612.25;5065151;28;20243;-65
2023/06/25 08:59:25;;;;;;;1999.90;999.90;;;;;;;30.57;44.02;95605.31;5067607;28;20213;-65
2023/06/25 09:01:51;;;;;;;1999.90;999.90;;;;;;;32.02;39.93;95600.78;5067948;28;20268;-65
2023/06/25 09:04:16;;;;;;;1999.90;999.90;;;;;;;32.17;39.10;95601.03;5067291;28;20308;-66
2023/06/25 09:06:41;;;;;;;1999.90;999.90;;;;;;;32.07;37.97;95602.75;5067341;28;20193;-66
2023/06/25 09:09:10;;;;;;;1999.90;999.90;;;;;;;31.82;40.87;95604.19;5067507;28;20244;-66
2023/06/25 09:11:40;;;;;;;1999.90;999.90;;;;;;;31.39;41.40;95589.41;5067309;28;20198;-65
2023/06/25 09:14:06;;;;;;;1999.90;999.90;;;;;;;31.60;40.54;95596.03;5067363;28;20189;-66
2023/06/25 09:16:54;;;;;;;1999.90;999.90;;;;;;;30.54;41.08;95600.72;5067034;28;20272;-65
2023/06/25 09:19:21;;;;;;;1999.90;999.90;;;;;;;31.71;38.90;95595.88;5067535;28;20206;-66
2023/06/25 09:21:47;;;;;;;1999.90;999.90;;;;;;;31.34;36.11;95604.41;5067174;28;20189;-66
2023/06/25 09:24:17;;;;;;;1999.90;999.90;;;;;;;31.36;35.67;95613.09;5067563;28;20212;-66
2023/06/25 09:26:50;;;;;;;1999.90;999.90;;;;;;;31.45;37.30;95598.59;5066824;28;20206;-65
2023/06/25 09:29:18;;;;;;;1999.90;999.90;;;;;;;30.21;41.35;95601.06;5066750;28;20193;-65
2023/06/25 09:31:44;;;;;;;1999.90;999.90;;;;;;;31.25;37.76;95589.91;5066931;28;20200;-65
2023/06/25 09:34:12;;;;;;;1999.90;999.90;;;;;;;31.16;38.54;95599.47;5066771;28;20189;-66
2023/06/25 09:36:37;;;;;;;1999.90;999.90;;;;;;;32.01;36.51;95593.59;5066961;28;20209;-65
2023/06/25 09:39:08;;;;;;;1999.90;999.90;;;;;;;31.99;36.48;95587.72;5066838;28;20277;-65
2023/06/25 09:41:38;;;;;;;1999.90;999.90;;;;;;;31.18;36.32;95592.00;5066325;28;20197;-66
2023/06/25 09:44:04;;;;;;;1999.90;999.90;;;;;;;31.28;37.43;95583.94;5066823;28;20170;-66
2023/06/25 09:46:35;;;;;;;1999.90;999.90;;;;;;;31.13;36.57;95594.91;5066615;28;20189;-65
2023/06/25 09:49:01;;;;;;;1999.90;999.90;;;;;;;31.02;36.98;95597.88;5066607;28;20189;-65
2023/06/25 09:51:59;;;;;;;1999.90;999.90;;;;;;;30.83;34.20;95597.09;5066544;28;20196;-64
2023/06/25 09:54:25;;;;;;;1999.90;999.90;;;;;;;30.58;34.57;95587.09;5066090;28;20211;-65
2023/06/25 09:56:51;;;;;;;1999.90;999.90;;;;;;;31.25;35.28;95585.03;5066351;28;20198;-64
2023/06/25 09:59:17;;;;;;;1999.90;999.90;;;;;;;30.81;36.71;95585.59;5066652;28;20232;-65
2023/06/25 10:01:42;;;;;;;1999.90;999.90;;;;;;;30.87;36.82;95577.78;5066465;28;20204;-65
2023/06/25 10:04:08;;;;;;;1999.90;999.90;;;;;;;31.53;35.22;95576.88;5066249;28;20253;-66
2023/06/25 10:06:35;;;;;;;1999.90;999.90;;;;;;;31.97;35.52;95575.44;5066050;28;20170;-65
2023/06/25 10:09:03;;;;;;;1999.90;999.90;;;;;;;31.70;35.70;95568.16;5065861;28;20197;-65
2023/06/25 10:11:28;;;;;;;1999.90;999.90;;;;;;;30.73;38.41;95576.94;5066230;28;20269;-66
2023/06/25 10:13:56;;;;;;;1999.90;999.90;;;;;;;31.09;38.20;95577.50;5066396;28;20201;-65
2023/06/25 10:16:22;;;;;;;1999.90;999.90;;;;;;;31.17;38.22;95561.47;5066275;28;20272;-65
2023/06/25 10:18:48;;;;;;;1999.90;999.90;;;;;;;31.25;38.94;95568.09;5066348;28;20213;-65
2023/06/25 10:21:22;;;;;;;1999.90;999.90;;;;;;;30.58;39.48;95567.34;5066336;28;20268;-65
2023/06/25 10:23:57;;;;;;;1999.90;999.90;;;;;;;31.63;37.13;95558.25;5065880;28;20216;-64
2023/06/25 10:26:29;;;;;;;1999.90;999.90;;;;;;;31.63;36.13;95555.41;5065851;28;20221;-65
2023/06/25 10:28:55;;;;;;;1999.90;999.90;;;;;;;31.90;37.17;95559.88;5065792;28;20204;-65
2023/06/25 10:31:21;;;;;;;1999.90;999.90;;;;;;;30.67;39.53;95547.25;5066136;28;20232;-65
2023/06/25 10:33:47;;;;;;;1999.90;999.90;;;;;;;29.48;40.28;95582.44;5066072;28;20221;-65
2023/06/25 10:36:12;;;;;;;1999.90;999.90;;;;;;;30.34;39.50;95559.66;5066008;28;20247;-65
2023/06/25 10:38:38;;;;;;;1999.90;999.90;;;;;;;30.83;37.82;95560.41;5065452;28;20209;-65
2023/06/25 10:41:04;;;;;;;1999.90;999.90;;;;;;;30.28;37.62;95561.03;5065627;28;20265;-65
2023/06/25 10:43:29;;;;;;;1999.90;999.90;;;;;;;30.63;38.31;95556.00;5065599;28;20248;-64
2023/06/25 10:45:58;;;;;;;1999.90;999.90;;;;;;;31.26;37.41;95555.47;5065556;28;20193;-65